createdAt,value
2022-09-15T00:00:44.794Z,98962.44
2022-09-15T00:03:48.181Z,98960.38
2022-09-15T00:06:51.235Z,98961.00
2022-09-15T00:09:54.268Z,98945.59
2022-09-15T00:12:57.092Z,98930.53
2022-09-15T00:16:00.488Z,98905.63
2022-09-15T00:19:04.382Z,98903.13
2022-09-15T00:22:07.687Z,98912.41
2022-09-15T00:25:11.408Z,98910.97
2022-09-15T00:28:15.939Z,98867.69
2022-09-15T00:31:21.828Z,98886.03
2022-09-15T00:34:25.397Z,98886.88
2022-09-15T00:37:28.281Z,98911.37
2022-09-15T00:40:31.772Z,98944.13
2022-09-15T00:43:47.115Z,98929.69
2022-09-15T00:47:09.663Z,98945.16
2022-09-15T00:50:18.929Z,98948.84
2022-09-15T00:53:23.702Z,98971.06
2022-09-15T00:56:27.701Z,98997.81
2022-09-15T00:59:32.962Z,99004.59
2022-09-15T01:02:37.954Z,99002.31
2022-09-15T01:05:51.407Z,99001.50
2022-09-15T01:09:02.131Z,98999.03
2022-09-15T01:12:06.319Z,99002.31
2022-09-15T01:15:09.383Z,99001.53
2022-09-15T01:18:22.054Z,99008.38
2022-09-15T01:21:45.230Z,99010.44
2022-09-15T01:25:23.179Z,98999.31
2022-09-15T01:28:53.321Z,98988.81
2022-09-15T01:32:24.375Z,98983.47
2022-09-15T01:35:48.800Z,98981.81
2022-09-15T01:39:02.483Z,98982.63
2022-09-15T01:42:09.804Z,98982.22
2022-09-15T01:45:25.516Z,98973.75
2022-09-15T01:48:30.206Z,98978.25
2022-09-15T01:51:35.721Z,98981.75
2022-09-15T01:54:51.431Z,98986.87
2022-09-15T01:57:57.046Z,98980.06
2022-09-15T02:01:47.169Z,98978.44
2022-09-15T02:05:02.533Z,98980.91
2022-09-15T02:08:29.181Z,98993.69
2022-09-15T02:11:36.893Z,98986.28
2022-09-15T02:15:05.562Z,98978.88
2022-09-15T02:18:14.324Z,98981.31
2022-09-15T02:21:24.283Z,98986.28
2022-09-15T02:24:50.251Z,98988.16
2022-09-15T02:27:57.672Z,98984.84
2022-09-15T02:31:04.290Z,98972.72
2022-09-15T02:34:18.190Z,98978.50
2022-09-15T02:37:23.109Z,98992.06
2022-09-15T02:40:28.376Z,98992.06
2022-09-15T02:43:31.820Z,98986.28
2022-09-15T02:46:39.217Z,98995.78
2022-09-15T02:49:42.404Z,98995.59
2022-09-15T02:52:46.259Z,99008.09
2022-09-15T02:55:49.578Z,98990.19
2022-09-15T02:58:52.994Z,98989.59
2022-09-15T03:01:58.913Z,98988.31
2022-09-15T03:05:01.855Z,99007.66
2022-09-15T03:08:05.085Z,98998.41
2022-09-15T03:11:31.022Z,99004.81
2022-09-15T03:14:35.497Z,99000.66
2022-09-15T03:17:44.144Z,99006.41
2022-09-15T03:20:47.639Z,99001.06
2022-09-15T03:23:50.503Z,98995.75
2022-09-15T03:26:53.563Z,99010.09
2022-09-15T03:29:56.520Z,99015.22
2022-09-15T03:32:59.497Z,99016.50
2022-09-15T03:36:03.221Z,99015.03
2022-09-15T03:39:06.903Z,99001.03
2022-09-15T03:42:10.326Z,99000.81
2022-09-15T03:45:13.528Z,99007.59
2022-09-15T03:48:16.132Z,99006.97
2022-09-15T03:51:19.151Z,99004.31
2022-09-15T03:54:22.067Z,98997.50
2022-09-15T03:57:25.257Z,98997.50
2022-09-15T04:00:28.316Z,99002.41
2022-09-15T04:03:31.723Z,99006.31
2022-09-15T04:06:35.649Z,99005.69
2022-09-15T04:09:38.743Z,99015.78
2022-09-15T04:12:44.561Z,99019.28
2022-09-15T04:15:48.590Z,99024.41
2022-09-15T04:18:55.435Z,99023.97
2022-09-15T04:22:00.779Z,99025.63
2022-09-15T04:25:04.228Z,99028.50
2022-09-15T04:28:07.458Z,99020.00
2022-09-15T04:31:13.453Z,99019.91
2022-09-15T04:34:16.883Z,99015.59
2022-09-15T04:37:21.910Z,99027.94
2022-09-15T04:40:45.993Z,99026.50
2022-09-15T04:43:50.338Z,99047.06
2022-09-15T04:46:54.417Z,99063.53
2022-09-15T04:49:57.273Z,99055.09
2022-09-15T04:53:00.422Z,99062.72
2022-09-15T04:56:07.720Z,99057.41
2022-09-15T04:59:22.015Z,99052.66
2022-09-15T05:02:25.045Z,99041.00
2022-09-15T05:05:30.287Z,99033.56
2022-09-15T05:08:33.493Z,99021.62
2022-09-15T05:11:40.314Z,99028.69
2022-09-15T05:14:45.881Z,99035.69
2022-09-15T05:17:51.343Z,99053.47
2022-09-15T05:21:01.942Z,99053.28
2022-09-15T05:27:39.618Z,99082.25
2022-09-15T05:49:04.708Z,99102.88
2022-09-15T05:57:11.518Z,99106.22
2022-09-15T06:00:15.306Z,99091.41
2022-09-15T06:19:20.596Z,99096.88
2022-09-15T06:22:28.410Z,99100.63
2022-09-15T06:25:33.901Z,99102.28
2022-09-15T06:28:38.520Z,99109.28
2022-09-15T06:31:44.439Z,99113.59
2022-09-15T06:34:47.583Z,99111.94
2022-09-15T06:37:51.136Z,99125.13
2022-09-15T06:40:58.424Z,99120.19
2022-09-15T06:44:04.241Z,99118.31
2022-09-15T06:47:07.596Z,99127.81
2022-09-15T06:51:00.666Z,99127.00
2022-09-15T06:59:18.866Z,99122.06
2022-09-15T07:02:41.432Z,99124.75
2022-09-15T07:05:46.484Z,99122.09
2022-09-15T07:09:13.374Z,99121.25
2022-09-15T07:12:16.451Z,99122.22
2022-09-15T07:15:21.304Z,99120.88
2022-09-15T07:19:06.058Z,99136.81
2022-09-15T07:26:30.986Z,99134.13
2022-09-15T07:29:37.725Z,99145.06
2022-09-15T07:32:41.579Z,99145.53
2022-09-15T07:35:45.196Z,99149.19
2022-09-15T07:38:50.304Z,99162.84
2022-09-15T07:51:11.518Z,99161.81
2022-09-15T07:54:19.385Z,99162.22
2022-09-15T07:57:24.774Z,99163.41
2022-09-15T08:00:28.309Z,99154.44
2022-09-15T08:03:31.555Z,99156.59
2022-09-15T08:06:34.668Z,99158.31
2022-09-15T08:09:58.302Z,99165.94
2022-09-15T08:13:01.578Z,99168.75
2022-09-15T08:16:12.658Z,99163.94
2022-09-15T08:19:15.727Z,99164.72
2022-09-15T08:22:19.152Z,99162.25
2022-09-15T08:25:22.499Z,99170.19
2022-09-15T08:28:26.568Z,99171.31
2022-09-15T08:55:49.604Z,99143.78
2022-09-15T08:58:56.518Z,99141.16
2022-09-15T09:03:33.467Z,99138.09
2022-09-15T09:06:49.665Z,99131.87
2022-09-15T09:35:34.598Z,99083.41
2022-09-15T09:38:43.277Z,99082.94
2022-09-15T09:41:47.166Z,99089.28
2022-09-15T09:44:50.807Z,99088.19
2022-09-15T09:48:01.583Z,99084.41
2022-09-15T09:51:49.403Z,99084.63
2022-09-15T09:55:09.883Z,99093.06
2022-09-15T09:58:22.291Z,99075.66
2022-09-15T10:01:26.388Z,99080.88
2022-09-15T10:04:31.244Z,99066.28
2022-09-15T10:07:40.146Z,99061.28
2022-09-15T10:10:52.644Z,99052.16
2022-09-15T11:06:03.249Z,99004.28
2022-09-15T13:01:00.685Z,98879.69
2022-09-15T13:04:05.223Z,98886.84
2022-09-15T13:07:17.365Z,98902.75
2022-09-15T13:10:31.097Z,98883.34
2022-09-15T13:14:08.697Z,98877.31
2022-09-15T13:17:18.681Z,98895.47
2022-09-15T13:20:51.133Z,98935.97
2022-09-15T13:23:56.036Z,98923.72
2022-09-15T13:26:59.394Z,98915.06
2022-09-15T13:30:09.494Z,98901.78
2022-09-15T13:41:15.794Z,98904.59
2022-09-15T13:44:53.476Z,98909.38
2022-09-15T13:48:07.666Z,98910.06
2022-09-15T13:51:25.177Z,98920.78
2022-09-15T13:54:28.173Z,98912.50
2022-09-15T14:01:15.480Z,98900.56
2022-09-15T14:04:28.490Z,98902.00
2022-09-15T14:07:32.790Z,98902.84
2022-09-15T14:10:54.774Z,98896.00
2022-09-15T14:13:59.348Z,98905.69
2022-09-15T14:17:03.249Z,98897.63
2022-09-15T14:20:38.040Z,98887.06
2022-09-15T14:24:20.944Z,98895.56
2022-09-15T14:27:50.907Z,98897.53
2022-09-15T14:31:00.895Z,98893.53
2022-09-15T14:34:07.579Z,98900.34
2022-09-15T14:37:47.099Z,98911.13
2022-09-15T14:41:05.433Z,98917.44
2022-09-15T14:48:02.317Z,98918.06
2022-09-15T14:51:17.894Z,98926.37
2022-09-15T14:54:27.736Z,98908.03
2022-09-15T14:57:36.692Z,98887.03
2022-09-15T15:01:08.454Z,98900.44
2022-09-15T15:04:33.758Z,98925.16
2022-09-15T15:07:37.935Z,98947.81
2022-09-15T15:10:41.665Z,98945.12
2022-09-15T15:13:49.122Z,98958.25
2022-09-15T15:17:08.267Z,98958.66
2022-09-15T15:20:10.909Z,98960.72
2022-09-15T15:23:24.145Z,99001.75
2022-09-15T15:26:29.690Z,99001.25
2022-09-15T15:29:40.609Z,98976.09
2022-09-15T15:32:49.923Z,98942.78
2022-09-15T15:36:06.690Z,98930.91
2022-09-15T15:39:24.614Z,98924.31
2022-09-15T15:42:29.155Z,98923.81
2022-09-15T15:45:58.857Z,98965.50
2022-09-15T15:49:06.709Z,98978.81
2022-09-15T15:52:10.117Z,98958.31
2022-09-15T15:55:35.951Z,98964.03
2022-09-15T15:58:39.125Z,98955.22
2022-09-15T16:01:43.569Z,98932.72
2022-09-15T16:04:46.400Z,98920.28
2022-09-15T16:07:51.934Z,98915.94
2022-09-15T16:11:01.567Z,98917.25
2022-09-15T16:14:04.101Z,98909.06
2022-09-15T16:17:08.260Z,98898.69
2022-09-15T16:20:11.642Z,98884.00
2022-09-15T16:23:17.455Z,98880.69
2022-09-15T16:26:23.733Z,98882.03
2022-09-15T16:29:29.907Z,98880.41
2022-09-15T16:32:32.736Z,98886.06
2022-09-15T16:35:43.695Z,98869.12
2022-09-15T16:38:46.490Z,98856.84
2022-09-15T16:41:49.355Z,98862.91
2022-09-15T16:44:51.942Z,98853.41
2022-09-15T16:48:01.850Z,98858.03
2022-09-15T16:51:28.424Z,98868.69
2022-09-15T16:54:33.738Z,98875.66
2022-09-15T16:57:36.337Z,98875.56
2022-09-15T17:00:41.928Z,98901.34
2022-09-15T17:03:44.733Z,98913.03
2022-09-15T17:06:48.343Z,98910.16
2022-09-15T17:09:51.461Z,98902.84
2022-09-15T17:12:54.659Z,98913.72
2022-09-15T17:15:57.854Z,98915.00
2022-09-15T17:19:01.266Z,98909.94
2022-09-15T17:22:04.009Z,98916.91
2022-09-15T17:25:30.051Z,98908.38
2022-09-15T17:28:36.915Z,98910.66
2022-09-15T17:31:39.983Z,98906.31
2022-09-15T17:34:42.557Z,98897.03
2022-09-15T17:37:46.098Z,98902.16
2022-09-15T17:40:53.795Z,98907.19
2022-09-15T17:43:57.037Z,98902.53
2022-09-15T17:46:59.773Z,98903.31
2022-09-15T17:50:03.378Z,98894.63
2022-09-15T17:53:12.866Z,98893.09
2022-09-15T17:56:16.389Z,98891.13
2022-09-15T17:59:22.012Z,98894.06
2022-09-15T18:02:27.186Z,98893.34
2022-09-15T18:05:33.600Z,98883.81
2022-09-15T18:08:36.681Z,98892.66
2022-09-15T18:11:40.661Z,98902.13
2022-09-15T18:14:43.348Z,98885.50
2022-09-15T18:17:53.294Z,98891.78
2022-09-15T18:20:58.469Z,98907.75
2022-09-15T18:24:10.328Z,98917.38
2022-09-15T18:27:13.015Z,98913.94
2022-09-15T18:30:20.260Z,98919.56
2022-09-15T18:33:26.923Z,98914.00
2022-09-15T18:36:31.599Z,98924.25
2022-09-15T18:39:35.246Z,98936.41
2022-09-15T18:42:41.624Z,98928.97
2022-09-15T18:45:44.889Z,98930.16
2022-09-15T18:48:48.074Z,98929.97
2022-09-15T18:51:51.850Z,98920.63
2022-09-15T18:55:02.346Z,98914.06
2022-09-15T18:58:05.598Z,98915.69
2022-09-15T19:01:11.175Z,98924.81
2022-09-15T19:04:38.493Z,98937.41
2022-09-15T19:07:47.562Z,98943.88
2022-09-15T19:11:00.913Z,98947.09
2022-09-15T19:14:08.318Z,98944.56
2022-09-15T19:17:12.319Z,98948.50
2022-09-15T19:23:39.192Z,98953.66
2022-09-15T19:26:47.271Z,98952.06
2022-09-15T19:29:50.666Z,98943.69
2022-09-15T19:32:53.800Z,98944.13
2022-09-15T19:36:17.257Z,98954.69
2022-09-15T19:39:24.846Z,98953.03
2022-09-15T19:42:27.610Z,98965.91
2022-09-15T19:45:30.636Z,98956.50
2022-09-15T19:48:38.527Z,98956.63
2022-09-15T19:51:43.649Z,98957.91
2022-09-15T19:54:48.041Z,98972.66
2022-09-15T19:57:51.358Z,98974.56
2022-09-15T20:00:56.303Z,98964.34
2022-09-15T20:03:59.701Z,98965.63
2022-09-15T20:07:02.616Z,98976.22
2022-09-15T20:10:07.078Z,98980.53
2022-09-15T20:13:10.520Z,98981.06
2022-09-15T20:16:21.180Z,98996.66
2022-09-15T20:19:24.341Z,98995.66
2022-09-15T20:22:28.613Z,99001.81
2022-09-15T20:25:33.636Z,99002.28
2022-09-15T20:28:36.794Z,98997.06
2022-09-15T20:31:41.601Z,98998.44
2022-09-15T20:34:45.528Z,98995.37
2022-09-15T20:37:56.086Z,98998.06
2022-09-15T20:41:01.803Z,99002.56
2022-09-15T20:44:09.492Z,99008.41
2022-09-15T20:47:13.104Z,99011.13
2022-09-15T20:50:17.299Z,99012.53
2022-09-15T20:53:20.752Z,99022.47
2022-09-15T20:56:25.611Z,99033.69
2022-09-15T20:59:28.797Z,99038.94
2022-09-15T21:02:31.776Z,99043.25
2022-09-15T21:05:34.730Z,99040.00
2022-09-15T21:08:37.843Z,99032.63
2022-09-15T21:11:43.241Z,99031.88
2022-09-15T21:14:45.714Z,99030.97
2022-09-15T21:17:48.497Z,99043.81
2022-09-15T21:20:58.497Z,99041.66
2022-09-15T21:24:08.714Z,99036.69
2022-09-15T21:27:26.914Z,99038.06
2022-09-15T21:30:30.009Z,99043.72
2022-09-15T21:33:33.033Z,99042.69
2022-09-15T21:36:35.944Z,99038.94
2022-09-15T21:39:38.558Z,99039.03
2022-09-15T21:42:42.648Z,99040.47
2022-09-15T21:45:45.366Z,99042.06
2022-09-15T21:48:49.061Z,99046.66
2022-09-15T21:51:51.745Z,99055.03
2022-09-15T21:54:54.533Z,99059.88
2022-09-15T21:57:57.162Z,99070.84
2022-09-15T22:01:10.848Z,99077.34
2022-09-15T22:04:13.644Z,99081.31
2022-09-15T22:07:17.363Z,99087.31
2022-09-15T22:10:22.135Z,99091.81
2022-09-15T22:13:24.776Z,99096.06
2022-09-15T22:16:30.143Z,99099.94
2022-09-15T22:19:32.963Z,99113.44
2022-09-15T22:22:35.932Z,99106.47
2022-09-15T22:25:38.533Z,99104.69
2022-09-15T22:28:41.609Z,99108.19
2022-09-15T22:31:44.308Z,99113.00
2022-09-15T22:34:47.827Z,99116.53
2022-09-15T22:37:50.404Z,99118.22
2022-09-15T22:40:53.184Z,99126.94
2022-09-15T22:43:55.934Z,99122.16
2022-09-15T22:47:00.219Z,99120.31
2022-09-15T22:50:02.863Z,99126.41
2022-09-15T22:53:06.043Z,99132.91
2022-09-15T22:56:12.172Z,99145.13
2022-09-15T22:59:15.019Z,99153.25
2022-09-15T23:02:17.643Z,99153.09
2022-09-15T23:05:20.544Z,99162.28
2022-09-15T23:08:23.078Z,99165.59
2022-09-15T23:11:27.939Z,99173.31
2022-09-15T23:14:30.491Z,99182.78
2022-09-15T23:17:34.478Z,99194.16
2022-09-15T23:20:39.788Z,99201.56
2022-09-15T23:23:44.317Z,99209.47
2022-09-15T23:26:46.802Z,99203.94
2022-09-15T23:29:49.914Z,99204.41
2022-09-15T23:32:52.747Z,99204.78
2022-09-15T23:35:55.960Z,99197.81
2022-09-15T23:38:58.550Z,99199.34
2022-09-15T23:42:02.038Z,99192.50
2022-09-15T23:45:05.037Z,99191.63
2022-09-15T23:48:10.584Z,99187.13
2022-09-15T23:51:13.398Z,99192.87
2022-09-15T23:54:16.281Z,99194.97
2022-09-15T23:57:19.364Z,99198.00
